Time;durP1;ratioP1;P1;durP2;ratioP2;P2;SDS_P1;SDS_P2;PMS_P1;PMS_P2;Temp;Humidity;BMP_temperature;BMP_pressure;BME280_temperature;BME280_humidity;BME280_pressure;Samples;Min_cycle;Max_cycle;Signal;HPM_P1;HPM_P2
2021/04/27 00:01:18;;;;;;;10.15;2.97;;;7.90;98.70;;;;;;5015725;28;20026;-84
2021/04/27 00:03:44;;;;;;;6.85;3.30;;;7.50;76.90;;;;;;5033378;28;20056;-84
2021/04/27 00:06:09;;;;;;;6.07;2.75;;;7.90;73.80;;;;;;5033310;28;20426;-84
2021/04/27 00:08:35;;;;;;;7.13;3.20;;;8.30;75.10;;;;;;5033526;28;20037;-85
2021/04/27 00:11:01;;;;;;;10.48;3.22;;;8.60;74.30;;;;;;5015608;28;20032;-84
2021/04/27 00:13:27;;;;;;;6.63;3.28;;;8.70;71.90;;;;;;5033466;28;20036;-85
2021/04/27 00:15:53;;;;;;;6.35;3.15;;;8.10;72.40;;;;;;5033202;28;20028;-84
2021/04/27 00:18:19;;;;;;;4.45;2.72;;;7.50;74.90;;;;;;5015560;28;20374;-84
2021/04/27 00:20:45;;;;;;;6.15;3.25;;;7.70;77.10;;;;;;5015501;28;20075;-85
2021/04/27 00:23:10;;;;;;;4.53;2.55;;;8.00;73.90;;;;;;5033428;28;20033;-84
2021/04/27 00:25:36;;;;;;;4.47;2.40;;;7.90;76.00;;;;;;5033145;28;20029;-84
2021/04/27 00:28:02;;;;;;;6.38;2.65;;;8.00;74.60;;;;;;5033076;28;20112;-85
2021/04/27 00:30:30;;;;;;;4.90;2.72;;;8.00;74.00;;;;;;5033123;28;20057;-84
2021/04/27 00:32:56;;;;;;;5.47;2.67;;;7.80;75.20;;;;;;5015343;28;20064;-84
2021/04/27 00:35:23;;;;;;;5.25;2.95;;;7.70;73.90;;;;;;5019310;28;20076;-85
2021/04/27 00:37:48;;;;;;;8.48;3.20;;;7.30;74.60;;;;;;5037037;28;20021;-84
2021/04/27 00:40:16;;;;;;;6.70;2.78;;;8.10;76.10;;;;;;5019255;28;20026;-84
2021/04/27 00:42:47;;;;;;;8.07;2.67;;;8.30;74.10;;;;;;5019176;28;20032;-84
2021/04/27 00:45:22;;;;;;;8.02;3.05;;;8.70;73.70;;;;;;5019012;28;20130;-84
2021/04/27 00:47:49;;;;;;;4.07;2.35;;;8.30;70.60;;;;;;5019182;28;20452;-84
2021/04/27 00:50:18;;;;;;;3.10;2.10;;;8.30;72.60;;;;;;5019074;28;20026;-84
2021/04/27 00:52:46;;;;;;;6.55;2.40;;;8.70;73.40;;;;;;5018919;28;20076;-84
2021/04/27 00:55:12;;;;;;;4.13;2.47;;;8.80;71.60;;;;;;5036733;28;20018;-84
2021/04/27 00:57:39;;;;;;;13.20;2.53;;;8.70;71.60;;;;;;5036611;28;20040;-85
2021/04/27 01:00:08;;;;;;;5.03;2.40;;;8.40;71.80;;;;;;5018901;28;20032;-84
2021/04/27 01:02:33;;;;;;;4.65;2.60;;;8.30;72.70;;;;;;5018849;28;20059;-85
2021/04/27 01:05:00;;;;;;;8.20;2.88;;;7.90;73.30;;;;;;5018845;28;20025;-84
2021/04/27 01:07:34;;;;;;;3.25;2.33;;;8.20;72.10;;;;;;5036490;28;20029;-84
2021/04/27 01:10:03;;;;;;;4.88;2.70;;;8.60;73.80;;;;;;5036511;28;20026;-84
2021/04/27 01:12:33;;;;;;;7.47;2.58;;;8.60;70.20;;;;;;5019395;28;20036;-84
2021/04/27 01:15:14;;;;;;;5.55;2.97;;;8.10;71.30;;;;;;5018600;28;20105;-84
2021/04/27 01:17:41;;;;;;;7.50;2.30;;;7.90;73.30;;;;;;5036366;28;20021;-84
2021/04/27 01:20:23;;;;;;;9.88;2.75;;;8.30;75.10;;;;;;5018468;28;20021;-84
2021/04/27 01:22:54;;;;;;;9.68;2.60;;;8.50;71.20;;;;;;5036498;28;20060;-84
2021/04/27 01:25:36;;;;;;;4.88;2.60;;;8.10;72.80;;;;;;5018415;28;20060;-84
2021/04/27 01:28:07;;;;;;;4.88;2.80;;;7.90;74.10;;;;;;5018375;28;20120;-84
2021/04/27 01:30:39;;;;;;;5.63;2.58;;;8.30;72.90;;;;;;5018400;28;20029;-85
2021/04/27 01:33:27;;;;;;;7.70;2.83;;;8.00;72.10;;;;;;5018285;28;20028;-84
2021/04/27 01:35:56;;;;;;;5.65;2.90;;;7.80;72.00;;;;;;5036269;28;20017;-84
2021/04/27 01:38:22;;;;;;;3.88;2.40;;;7.60;71.60;;;;;;5036138;28;20028;-84
2021/04/27 01:40:49;;;;;;;4.15;2.42;;;7.40;74.70;;;;;;5018121;28;20493;-84
2021/04/27 01:43:17;;;;;;;6.85;2.55;;;7.60;74.50;;;;;;5018080;28;20029;-84
2021/04/27 01:45:44;;;;;;;4.30;2.67;;;7.60;74.20;;;;;;5017635;28;20061;-84
2021/04/27 01:48:11;;;;;;;6.43;2.63;;;7.80;72.90;;;;;;5018493;28;20036;-84
2021/04/27 01:50:39;;;;;;;4.93;2.67;;;7.50;71.90;;;;;;5018081;28;20459;-84
2021/04/27 01:53:05;;;;;;;5.55;2.53;;;6.90;74.00;;;;;;5018086;28;20485;-84
2021/04/27 01:55:31;;;;;;;6.55;2.25;;;7.40;76.80;;;;;;5036038;28;20021;-84
2021/04/27 01:57:57;;;;;;;5.95;2.40;;;7.80;74.30;;;;;;5035878;28;20366;-84
2021/04/27 02:00:24;;;;;;;5.30;2.08;;;8.10;74.50;;;;;;5035704;28;20021;-84
2021/04/27 02:02:51;;;;;;;5.47;2.10;;;8.40;72.90;;;;;;5035605;28;20048;-83
2021/04/27 02:05:17;;;;;;;7.57;2.78;;;8.40;71.90;;;;;;5017991;28;20113;-84
2021/04/27 02:07:43;;;;;;;5.18;2.40;;;8.30;72.10;;;;;;5035592;28;20029;-83
2021/04/27 02:10:11;;;;;;;5.78;2.83;;;8.40;71.00;;;;;;5017861;28;20067;-84
2021/04/27 02:12:46;;;;;;;4.03;2.67;;;7.40;70.00;;;;;;5017649;28;20116;-84
2021/04/27 02:15:14;;;;;;;6.10;2.70;;;7.50;74.10;;;;;;5036172;28;20485;-84
2021/04/27 02:17:51;;;;;;;6.00;2.40;;;7.70;73.80;;;;;;5035625;28;20026;-84
2021/04/27 02:20:21;;;;;;;6.40;2.05;;;7.70;73.20;;;;;;5017690;28;20674;-83
2021/04/27 02:22:48;;;;;;;4.00;2.08;;;8.00;73.30;;;;;;5017721;28;20029;-84
2021/04/27 02:25:15;;;;;;;6.68;2.30;;;7.70;72.90;;;;;;5017686;28;20514;-84
2021/04/27 02:27:42;;;;;;;6.85;2.78;;;7.30;73.40;;;;;;5017564;28;20030;-84
2021/04/27 02:30:11;;;;;;;3.30;2.38;;;7.30;72.40;;;;;;5035011;28;20028;-84
2021/04/27 02:32:38;;;;;;;6.68;2.45;;;7.30;73.60;;;;;;5035037;28;20485;-84
2021/04/27 02:35:05;;;;;;;4.10;2.00;;;7.50;73.10;;;;;;5017412;28;20022;-84
2021/04/27 02:37:31;;;;;;;6.57;2.13;;;7.80;73.40;;;;;;5034975;28;20031;-84
2021/04/27 02:39:57;;;;;;;5.20;2.40;;;7.50;73.90;;;;;;5034959;28;20025;-84
2021/04/27 02:42:23;;;;;;;3.58;2.40;;;7.50;72.50;;;;;;5017187;28;20438;-84
2021/04/27 02:44:50;;;;;;;5.78;2.20;;;7.50;72.50;;;;;;5034725;28;20444;-84
2021/04/27 02:47:16;;;;;;;3.85;2.20;;;7.40;74.60;;;;;;5035216;28;20025;-84
2021/04/27 02:49:41;;;;;;;8.27;2.28;;;8.00;73.80;;;;;;5017055;28;20080;-84
2021/04/27 02:52:07;;;;;;;6.03;2.30;;;8.30;71.50;;;;;;5016948;28;20025;-84
2021/04/27 02:54:33;;;;;;;3.50;1.92;;;8.00;69.80;;;;;;5017769;28;20428;-84
2021/04/27 02:56:58;;;;;;;6.43;2.78;;;7.30;70.70;;;;;;5016436;28;20080;-84
2021/04/27 02:59:24;;;;;;;3.55;2.20;;;6.70;72.30;;;;;;5034666;28;20061;-84
2021/04/27 03:01:50;;;;;;;6.18;2.22;;;7.00;75.90;;;;;;5035174;28;20021;-84
2021/04/27 03:04:16;;;;;;;3.42;2.28;;;7.40;73.70;;;;;;5016660;28;20554;-84
2021/04/27 03:06:41;;;;;;;4.45;1.90;;;7.30;71.90;;;;;;5034735;28;20088;-83
2021/04/27 03:09:07;;;;;;;5.75;2.38;;;7.10;72.70;;;;;;5034863;28;20039;-84
2021/04/27 03:11:33;;;;;;;7.20;2.60;;;7.10;73.80;;;;;;5034471;28;20144;-84
2021/04/27 03:13:59;;;;;;;3.50;2.17;;;7.20;74.70;;;;;;5034342;28;20040;-84
2021/04/27 03:16:25;;;;;;;5.07;2.10;;;6.60;77.40;;;;;;5034389;28;20025;-84
2021/04/27 03:18:51;;;;;;;4.65;2.28;;;7.50;77.50;;;;;;5016433;28;20052;-84
2021/04/27 03:21:17;;;;;;;3.53;1.92;;;7.30;74.70;;;;;;5034099;28;20030;-84
2021/04/27 03:23:43;;;;;;;2.92;1.83;;;7.40;73.70;;;;;;5034197;28;20036;-84
2021/04/27 03:26:09;;;;;;;4.03;2.42;;;7.70;75.30;;;;;;5016430;28;20481;-84
2021/04/27 03:28:34;;;;;;;4.50;2.20;;;7.80;71.50;;;;;;5016340;28;20497;-84
2021/04/27 03:31:00;;;;;;;6.35;2.13;;;7.20;73.00;;;;;;5033893;28;20508;-84
2021/04/27 03:33:26;;;;;;;3.38;1.83;;;7.40;74.10;;;;;;5016370;28;20067;-84
2021/04/27 03:35:52;;;;;;;4.63;2.20;;;7.50;73.80;;;;;;5033998;28;20035;-84
2021/04/27 03:38:19;;;;;;;4.18;2.53;;;7.30;73.00;;;;;;5033852;28;20021;-84
2021/04/27 03:40:47;;;;;;;8.68;2.17;;;;;;;;;;5016143;28;20057;-84
2021/04/27 03:43:13;;;;;;;3.78;2.08;;;6.70;99.90;;;;;;5016139;28;20048;-84
2021/04/27 03:45:38;;;;;;;4.97;2.42;;;6.90;92.20;;;;;;5015939;28;20401;-84
2021/04/27 03:48:11;;;;;;;5.20;2.42;;;6.50;92.00;;;;;;5016051;28;20079;-84
2021/04/27 03:50:37;;;;;;;3.17;2.10;;;6.70;91.60;;;;;;5033732;28;20380;-84
2021/04/27 03:53:04;;;;;;;12.48;2.50;;;6.70;91.70;;;;;;5033475;28;20504;-83
2021/04/27 03:55:29;;;;;;;3.53;2.40;;;6.60;91.50;;;;;;5016496;28;20109;-84
2021/04/27 03:57:55;;;;;;;4.82;2.33;;;7.00;91.20;;;;;;5033745;28;20064;-83
2021/04/27 04:00:21;;;;;;;3.28;1.98;;;7.20;90.60;;;;;;5033798;28;20018;-84
2021/04/27 04:02:47;;;;;;;7.80;3.17;;;7.30;90.80;;;;;;5015939;28;20029;-83
2021/04/27 04:05:14;;;;;;;45.15;12.93;;;6.90;90.00;;;;;;5015938;28;20022;-83
2021/04/27 04:07:40;;;;;;;5.03;2.22;;;6.60;78.20;;;;;;5015889;28;20056;-84
2021/04/27 04:10:07;;;;;;;5.28;2.40;;;7.00;81.50;;;;;;5033461;28;20078;-83
2021/04/27 04:12:34;;;;;;;7.00;2.85;;;7.40;77.90;;;;;;5033237;28;20076;-83
2021/04/27 04:15:00;;;;;;;7.55;2.80;;;7.70;77.30;;;;;;5015849;28;20017;-83
2021/04/27 04:17:25;;;;;;;6.40;2.42;;;7.80;75.90;;;;;;5015787;28;20025;-84
2021/04/27 04:19:51;;;;;;;6.63;2.50;;;7.50;75.10;;;;;;5033255;28;20382;-84
2021/04/27 04:22:17;;;;;;;6.88;2.90;;;7.40;76.00;;;;;;5033882;28;20049;-83
2021/04/27 04:24:43;;;;;;;5.20;2.38;;;7.40;76.20;;;;;;5015690;28;20061;-84
2021/04/27 04:27:08;;;;;;;5.30;2.50;;;7.80;76.20;;;;;;5015512;28;20064;-84
2021/04/27 04:29:34;;;;;;;6.63;2.70;;;7.80;76.00;;;;;;5033502;28;20087;-84
2021/04/27 04:32:00;;;;;;;5.68;2.72;;;8.00;73.60;;;;;;5016780;28;20342;-84
2021/04/27 04:34:26;;;;;;;6.72;2.50;;;7.80;76.30;;;;;;5033538;28;20034;-84
2021/04/27 04:36:51;;;;;;;7.03;2.83;;;7.80;74.50;;;;;;5015896;28;20143;-82
2021/04/27 04:39:17;;;;;;;6.32;2.47;;;7.50;73.90;;;;;;5033428;28;20465;-84
2021/04/27 04:41:43;;;;;;;6.68;2.22;;;7.30;76.20;;;;;;5033149;28;20028;-84
2021/04/27 04:44:09;;;;;;;9.13;2.90;;;7.60;76.50;;;;;;5015495;28;20452;-84
2021/04/27 04:46:35;;;;;;;5.25;2.70;;;7.70;73.70;;;;;;5015425;28;20041;-84
2021/04/27 04:49:01;;;;;;;5.63;2.47;;;7.30;75.60;;;;;;5033079;28;20025;-84
2021/04/27 04:51:27;;;;;;;4.93;2.58;;;7.40;75.50;;;;;;5033468;28;20029;-84
2021/04/27 04:53:54;;;;;;;6.22;2.58;;;7.60;75.90;;;;;;5015222;28;20063;-84
2021/04/27 04:56:20;;;;;;;5.32;2.67;;;7.20;76.20;;;;;;5015340;28;20067;-83
2021/04/27 04:58:46;;;;;;;7.60;2.67;;;7.50;75.30;;;;;;5015794;28;20561;-83
2021/04/27 05:01:12;;;;;;;6.88;2.55;;;7.00;76.50;;;;;;5033052;28;20021;-83
2021/04/27 05:03:38;;;;;;;10.05;2.78;;;6.80;72.60;;;;;;5032866;28;20108;-83
2021/04/27 05:06:05;;;;;;;5.88;2.40;;;6.50;73.50;;;;;;5033161;28;20121;-84
2021/04/27 05:08:34;;;;;;;7.35;2.60;;;6.60;73.30;;;;;;5015271;28;20041;-83
2021/04/27 05:11:00;;;;;;;6.03;2.47;;;7.10;75.60;;;;;;5033480;28;20465;-83
2021/04/27 05:13:26;;;;;;;11.95;2.95;;;7.40;73.70;;;;;;5033010;28;20032;-83
2021/04/27 05:15:52;;;;;;;7.22;2.45;;;7.00;72.50;;;;;;5033248;28;20100;-83
2021/04/27 05:18:18;;;;;;;6.72;2.80;;;7.10;74.20;;;;;;5032875;28;20026;-82
2021/04/27 05:20:45;;;;;;;5.40;2.35;;;7.30;72.60;;;;;;5017915;28;20104;-83
2021/04/27 05:23:11;;;;;;;6.85;2.92;;;7.10;73.90;;;;;;5018782;28;20032;-83
2021/04/27 05:25:37;;;;;;;5.97;3.10;;;7.40;74.40;;;;;;5036603;28;20125;-83
2021/04/27 05:28:02;;;;;;;8.45;3.20;;;7.10;72.70;;;;;;5018863;28;20116;-83
2021/04/27 05:30:28;;;;;;;7.68;2.88;;;7.10;75.50;;;;;;5036427;28;20451;-83
2021/04/27 05:32:54;;;;;;;9.18;2.70;;;7.60;73.70;;;;;;5018753;28;20544;-83
2021/04/27 05:35:21;;;;;;;6.45;2.78;;;7.70;72.70;;;;;;5036471;28;20363;-83
2021/04/27 05:37:46;;;;;;;9.88;3.63;;;7.20;72.70;;;;;;5036206;28;20033;-83
2021/04/27 05:40:12;;;;;;;12.70;3.00;;;7.00;73.40;;;;;;5018700;28;20021;-83
2021/04/27 05:42:38;;;;;;;9.27;3.03;;;7.10;74.80;;;;;;5018448;28;20022;-83
2021/04/27 05:45:05;;;;;;;8.10;3.22;;;7.50;72.90;;;;;;5018264;28;20119;-83
2021/04/27 05:47:31;;;;;;;8.60;2.88;;;7.80;72.40;;;;;;5018224;28;20029;-83
2021/04/27 05:49:57;;;;;;;10.10;3.53;;;7.70;72.90;;;;;;5018312;28;20033;-83
2021/04/27 05:52:22;;;;;;;11.00;2.90;;;7.90;71.40;;;;;;5036140;28;20385;-83
2021/04/27 05:54:48;;;;;;;8.45;2.78;;;7.80;72.40;;;;;;5018453;28;20021;-83
2021/04/27 05:57:14;;;;;;;14.35;3.58;;;7.60;73.10;;;;;;5035955;28;20499;-83
2021/04/27 05:59:39;;;;;;;15.18;4.25;;;7.20;73.50;;;;;;5035871;28;20022;-83
2021/04/27 06:02:05;;;;;;;5.85;3.88;;;7.00;75.20;;;;;;5018114;28;20032;-83
2021/04/27 06:04:31;;;;;;;8.13;3.45;;;7.30;74.90;;;;;;5017993;28;20079;-83
2021/04/27 06:06:57;;;;;;;7.13;3.20;;;7.00;75.40;;;;;;5017933;28;20146;-83
2021/04/27 06:09:23;;;;;;;8.10;3.05;;;7.30;75.30;;;;;;5035652;28;20029;-83
2021/04/27 06:11:48;;;;;;;7.00;3.05;;;7.50;74.90;;;;;;5017752;28;20620;-83
2021/04/27 06:14:14;;;;;;;6.80;3.20;;;7.40;74.80;;;;;;5035536;28;20025;-83
2021/04/27 06:16:40;;;;;;;7.18;3.28;;;7.60;74.70;;;;;;5035934;28;20478;-83
2021/04/27 06:19:06;;;;;;;6.95;3.00;;;7.70;74.50;;;;;;5035740;28;20187;-83
2021/04/27 06:21:32;;;;;;;7.85;3.05;;;8.00;74.00;;;;;;5018019;28;20385;-83
2021/04/27 06:23:58;;;;;;;5.72;2.97;;;8.20;72.60;;;;;;5035883;28;20072;-83
2021/04/27 06:26:24;;;;;;;8.32;2.92;;;8.50;71.90;;;;;;5036394;28;20103;-83
2021/04/27 06:28:50;;;;;;;10.35;3.58;;;8.30;71.20;;;;;;5018014;28;20037;-84
2021/04/27 06:31:19;;;;;;;9.43;3.00;;;8.10;72.50;;;;;;5016841;28;20022;-84
2021/04/27 06:33:45;;;;;;;5.75;2.63;;;8.00;72.10;;;;;;5017425;28;20057;-84
2021/04/27 06:36:13;;;;;;;7.15;3.08;;;8.30;72.70;;;;;;5035280;28;20049;-84
2021/04/27 06:38:38;;;;;;;6.88;3.00;;;8.30;71.90;;;;;;5018353;28;20373;-84
2021/04/27 06:41:04;;;;;;;7.57;2.83;;;8.00;72.70;;;;;;5017435;28;20026;-84
2021/04/27 06:43:30;;;;;;;5.50;3.08;;;7.80;73.50;;;;;;5017448;28;20079;-84
2021/04/27 06:45:55;;;;;;;5.65;3.10;;;8.10;73.60;;;;;;5017348;28;20128;-83
2021/04/27 06:48:21;;;;;;;8.20;2.90;;;8.40;72.50;;;;;;5017258;28;20393;-84
2021/04/27 06:50:47;;;;;;;12.45;2.90;;;8.80;71.20;;;;;;5035151;28;20033;-84
2021/04/27 06:53:13;;;;;;;9.77;3.55;;;9.00;70.00;;;;;;5035036;28;20068;-84
2021/04/27 06:55:38;;;;;;;6.28;2.85;;;8.90;70.00;;;;;;5035270;28;20025;-84
2021/04/27 06:58:13;;;;;;;12.82;3.00;;;9.20;70.60;;;;;;5017560;28;20018;-84
2021/04/27 07:00:40;;;;;;;16.20;2.40;;;9.30;69.20;;;;;;5036350;28;20469;-84
2021/04/27 07:03:07;;;;;;;7.35;3.20;;;9.10;70.40;;;;;;5018145;28;20079;-84
2021/04/27 07:05:33;;;;;;;5.97;2.90;;;8.90;71.10;;;;;;5017337;28;20029;-84
2021/04/27 07:07:58;;;;;;;7.30;3.13;;;8.90;71.40;;;;;;5017349;28;20037;-84
2021/04/27 07:10:25;;;;;;;13.25;3.30;;;9.10;70.70;;;;;;5017075;28;20029;-85
2021/04/27 07:12:51;;;;;;;12.85;3.75;;;9.20;70.50;;;;;;5034780;28;20029;-84
2021/04/27 07:15:17;;;;;;;11.40;3.38;;;9.20;70.40;;;;;;5017208;28;20487;-83
2021/04/27 07:17:43;;;;;;;11.80;3.17;;;9.30;70.30;;;;;;5034713;28;20079;-84
2021/04/27 07:20:11;;;;;;;8.88;3.28;;;9.50;70.50;;;;;;5017005;28;20022;-84
2021/04/27 07:22:36;;;;;;;4.82;3.03;;;9.50;69.50;;;;;;5017143;28;20075;-84
2021/04/27 07:25:04;;;;;;;8.43;3.17;;;9.70;69.30;;;;;;5016691;28;20116;-84
2021/04/27 07:27:29;;;;;;;9.63;2.92;;;10.00;68.50;;;;;;5034640;28;20021;-84
2021/04/27 07:29:55;;;;;;;10.38;3.25;;;9.70;69.30;;;;;;5016696;28;20148;-84
2021/04/27 07:32:21;;;;;;;9.18;3.50;;;9.90;68.40;;;;;;5034491;28;20461;-84
2021/04/27 07:34:46;;;;;;;9.23;2.97;;;10.00;68.90;;;;;;5016878;28;20099;-84
2021/04/27 07:37:12;;;;;;;9.68;3.30;;;10.00;68.30;;;;;;5016585;28;20049;-84
2021/04/27 07:39:38;;;;;;;8.63;3.28;;;10.30;68.40;;;;;;5016370;28;20116;-84
2021/04/27 07:42:04;;;;;;;10.15;3.97;;;10.30;67.60;;;;;;5016221;28;20025;-84
2021/04/27 07:44:30;;;;;;;9.00;3.60;;;10.10;67.60;;;;;;5033923;28;20036;-84
2021/04/27 07:46:56;;;;;;;10.07;3.65;;;10.10;68.00;;;;;;5016515;28;20029;-85
2021/04/27 07:49:21;;;;;;;21.23;3.90;;;10.30;68.70;;;;;;5015907;28;20021;-85
2021/04/27 07:51:47;;;;;;;6.82;3.10;;;10.20;68.90;;;;;;5015859;28;20095;-85
2021/04/27 07:54:13;;;;;;;8.98;3.70;;;10.50;68.80;;;;;;5015658;28;20060;-84
2021/04/27 07:56:39;;;;;;;12.18;3.75;;;10.80;68.10;;;;;;5033988;28;20507;-84
2021/04/27 07:59:06;;;;;;;8.35;3.10;;;11.00;67.60;;;;;;5033679;28;20018;-84
2021/04/27 08:01:33;;;;;;;9.10;3.08;;;11.10;67.10;;;;;;5015669;28;20022;-84
2021/04/27 08:03:59;;;;;;;8.20;3.47;;;10.90;67.50;;;;;;5000081;28;20061;-84
2021/04/27 08:06:26;;;;;;;16.13;5.00;;;10.90;67.20;;;;;;5015622;28;20065;-84
2021/04/27 08:08:52;;;;;;;12.05;3.53;;;11.00;68.20;;;;;;5015565;28;20033;-84
2021/04/27 08:11:18;;;;;;;13.15;4.35;;;11.20;66.90;;;;;;5015576;28;20401;-84
2021/04/27 08:13:44;;;;;;;9.65;3.67;;;11.30;67.40;;;;;;5033510;28;20026;-84
2021/04/27 08:16:10;;;;;;;5.97;3.40;;;11.30;66.80;;;;;;5033183;28;20033;-83
2021/04/27 08:18:37;;;;;;;8.13;3.70;;;11.40;67.00;;;;;;5033265;28;20496;-83
2021/04/27 08:21:09;;;;;;;10.02;3.92;;;11.50;66.90;;;;;;5015491;28;20018;-83
2021/04/27 08:23:36;;;;;;;6.80;3.30;;;11.60;66.00;;;;;;5015411;28;20030;-84
2021/04/27 08:26:07;;;;;;;14.18;4.07;;;11.90;65.90;;;;;;5015458;28;20029;-82
2021/04/27 08:28:33;;;;;;;6.80;3.70;;;12.00;65.40;;;;;;5015269;28;20060;-84
2021/04/27 08:30:59;;;;;;;9.07;4.28;;;12.00;65.80;;;;;;5015287;28;20091;-83
2021/04/27 08:33:25;;;;;;;9.80;4.10;;;12.20;64.30;;;;;;5015309;28;20058;-83
2021/04/27 08:35:52;;;;;;;6.80;3.47;;;12.30;64.50;;;;;;5015383;28;20112;-84
2021/04/27 08:38:18;;;;;;;10.55;3.72;;;12.30;64.40;;;;;;5033256;28;20041;-83
2021/04/27 08:40:45;;;;;;;16.02;4.47;;;12.50;64.00;;;;;;5015279;28;20477;-84
2021/04/27 08:43:11;;;;;;;8.57;3.75;;;12.70;64.00;;;;;;5015236;28;20137;-84
2021/04/27 08:45:37;;;;;;;10.52;4.45;;;12.80;63.30;;;;;;5015078;28;20049;-84
2021/04/27 08:48:02;;;;;;;9.23;3.38;;;12.70;62.50;;;;;;5015357;28;20029;-84
2021/04/27 08:50:29;;;;;;;10.93;4.00;;;12.80;62.50;;;;;;5015175;28;20034;-84
2021/04/27 08:52:54;;;;;;;7.50;3.65;;;12.80;63.30;;;;;;5033103;28;20112;-84
2021/04/27 08:55:21;;;;;;;9.90;4.15;;;13.00;64.10;;;;;;5017444;28;20053;-84
2021/04/27 08:57:48;;;;;;;9.23;3.85;;;13.40;70.00;;;;;;5019091;28;20022;-84
2021/04/27 09:00:17;;;;;;;12.57;4.45;;;13.60;65.10;;;;;;5018970;28;20017;-84
2021/04/27 09:02:45;;;;;;;11.48;4.38;;;13.50;64.50;;;;;;5036568;28;20477;-84
2021/04/27 09:05:40;;;;;;;15.95;5.43;;;13.80;63.80;;;;;;5018849;28;20393;-84
2021/04/27 09:08:07;;;;;;;15.07;4.75;;;13.90;62.20;;;;;;5036755;28;20024;-84
2021/04/27 09:10:38;;;;;;;7.60;4.13;;;14.10;63.50;;;;;;5036486;28;20029;-84
2021/04/27 09:13:15;;;;;;;10.57;3.90;;;14.10;63.80;;;;;;5018649;28;20029;-84
2021/04/27 09:15:53;;;;;;;10.57;4.68;;;14.10;63.10;;;;;;5036386;28;20028;-84
2021/04/27 09:18:33;;;;;;;11.45;4.65;;;14.00;62.20;;;;;;5036371;28;20052;-84
2021/04/27 09:21:02;;;;;;;9.10;4.65;;;14.30;80.10;;;;;;5018601;28;20025;-84
2021/04/27 09:23:29;;;;;;;10.82;5.13;;;14.50;78.00;;;;;;5019271;28;20124;-84
2021/04/27 09:26:17;;;;;;;16.17;5.57;;;14.80;66.60;;;;;;5036562;28;20029;-84
2021/04/27 09:28:50;;;;;;;8.48;4.50;;;14.40;65.30;;;;;;5036650;28;20033;-84
2021/04/27 09:31:30;;;;;;;10.13;4.32;;;14.60;67.10;;;;;;5018522;28;20072;-84
2021/04/27 09:34:18;;;;;;;9.45;4.97;;;15.00;72.70;;;;;;5018202;28;20030;-84
2021/04/27 09:36:44;;;;;;;22.25;6.30;;;15.10;56.80;;;;;;5018348;28;20384;-84
2021/04/27 09:39:10;;;;;;;7.50;4.82;;;15.30;60.00;;;;;;5018148;28;20029;-84
2021/04/27 09:41:36;;;;;;;19.20;5.55;;;15.30;57.60;;;;;;5018203;28;20049;-84
2021/04/27 09:44:02;;;;;;;10.93;4.38;;;15.40;57.70;;;;;;5035863;28;20028;-84
2021/04/27 09:46:28;;;;;;;11.75;4.40;;;15.30;57.20;;;;;;5014631;28;20466;-84
2021/04/27 09:48:58;;;;;;;7.93;4.07;;;15.50;57.50;;;;;;5014707;28;20030;-84
2021/04/27 09:51:29;;;;;;;15.18;5.57;;;15.50;56.30;;;;;;5014754;28;20389;-84
2021/04/27 09:53:58;;;;;;;9.73;3.92;;;15.70;55.10;;;;;;5014569;28;20064;-84
2021/04/27 09:56:50;;;;;;;9.90;4.25;;;15.60;55.00;;;;;;5014826;28;20022;-84
2021/04/27 09:59:28;;;;;;;8.82;4.25;;;15.80;56.20;;;;;;5014727;28;20025;-84
2021/04/27 10:02:04;;;;;;;9.73;5.47;;;16.00;55.10;;;;;;5014499;28;20069;-84
2021/04/27 10:04:30;;;;;;;13.48;5.18;;;16.30;54.50;;;;;;5014880;28;20034;-84
2021/04/27 10:07:00;;;;;;;8.13;4.95;;;16.30;53.90;;;;;;5014789;28;20026;-84
2021/04/27 10:09:25;;;;;;;10.80;4.47;;;16.40;55.10;;;;;;5014365;28;20442;-84
2021/04/27 10:11:52;;;;;;;10.05;4.93;;;16.70;54.40;;;;;;5014331;28;20061;-84
2021/04/27 10:14:18;;;;;;;12.63;5.00;;;16.60;53.20;;;;;;5015493;28;20022;-84
2021/04/27 10:16:44;;;;;;;15.52;5.35;;;16.70;53.00;;;;;;5014248;28;20075;-84
2021/04/27 10:19:10;;;;;;;7.13;4.07;;;16.90;54.90;;;;;;5014091;28;20140;-84
2021/04/27 10:21:37;;;;;;;11.70;4.20;;;16.80;54.50;;;;;;5014145;28;20485;-84
2021/04/27 10:24:15;;;;;;;11.60;4.80;;;17.00;55.50;;;;;;5014078;28;20052;-84
2021/04/27 10:26:44;;;;;;;10.52;4.28;;;17.00;53.30;;;;;;5015358;28;20363;-84
2021/04/27 10:29:18;;;;;;;8.55;4.50;;;;;;;;;;5014361;28;20028;-84
2021/04/27 10:31:45;;;;;;;8.85;4.22;;;17.40;47.60;;;;;;5013928;28;20581;-83
2021/04/27 10:34:19;;;;;;;10.02;4.32;;;18.00;52.80;;;;;;5014009;28;20049;-84
2021/04/27 10:36:51;;;;;;;9.27;4.40;;;17.90;51.90;;;;;;5015428;28;20101;-85
2021/04/27 10:39:34;;;;;;;9.73;4.60;;;18.10;47.70;;;;;;5015759;28;20049;-85
2021/04/27 10:42:21;;;;;;;10.07;4.90;;;18.40;46.60;;;;;;5014218;28;20026;-84
2021/04/27 10:45:07;;;;;;;8.73;4.53;;;18.40;45.90;;;;;;5017558;28;20048;-84
2021/04/27 10:47:44;;;;;;;9.70;5.68;;;18.50;47.60;;;;;;5017358;28;20116;-84
2021/04/27 10:50:27;;;;;;;9.15;4.53;;;18.10;47.30;;;;;;5016981;28;20033;-84
2021/04/27 10:52:53;;;;;;;10.40;5.40;;;;;;;;;;5016922;28;20037;-84
2021/04/27 10:55:23;;;;;;;9.10;5.00;;;;;;;;;;5017152;28;20473;-84
2021/04/27 10:57:49;;;;;;;8.30;4.35;;;18.80;45.60;;;;;;5016708;28;20021;-85
2021/04/27 11:00:41;;;;;;;8.05;4.65;;;18.90;47.50;;;;;;5016681;28;20393;-83
2021/04/27 11:03:13;;;;;;;8.55;4.93;;;19.30;51.90;;;;;;5016767;28;20053;-84
2021/04/27 11:05:54;;;;;;;16.02;5.45;;;19.40;45.70;;;;;;5016616;28;20075;-84
2021/04/27 11:08:19;;;;;;;11.07;4.53;;;19.50;45.70;;;;;;5016793;28;20022;-84
2021/04/27 11:10:47;;;;;;;11.20;4.75;;;19.90;45.40;;;;;;5034305;28;20075;-85
2021/04/27 11:13:14;;;;;;;9.07;4.93;;;19.30;44.10;;;;;;5034418;28;20028;-84
2021/04/27 11:15:43;;;;;;;9.18;4.85;;;19.30;43.70;;;;;;5034149;28;20045;-85
2021/04/27 11:18:15;;;;;;;9.52;5.38;;;19.70;44.50;;;;;;5015902;28;20075;-85
2021/04/27 11:20:52;;;;;;;8.70;4.75;;;19.80;44.20;;;;;;5016362;28;20028;-85
2021/04/27 11:23:44;;;;;;;8.57;4.45;;;19.90;44.00;;;;;;5016330;28;20033;-85
2021/04/27 11:26:28;;;;;;;6.75;4.53;;;19.70;42.40;;;;;;5016284;28;20108;-86
2021/04/27 11:28:55;;;;;;;8.10;4.93;;;;;;;;;;5016238;28;20489;-86
2021/04/27 11:31:21;;;;;;;9.23;4.55;;;20.50;42.60;;;;;;5016217;28;20037;-86
2021/04/27 11:33:58;;;;;;;8.18;5.30;;;20.50;43.40;;;;;;5033772;28;20048;-85
2021/04/27 11:36:39;;;;;;;11.50;5.20;;;20.30;42.30;;;;;;5016146;28;20361;-85
2021/04/27 11:39:14;;;;;;;8.90;5.82;;;20.60;43.60;;;;;;5016009;28;20030;-85
2021/04/27 11:41:50;;;;;;;9.63;5.10;;;20.60;42.20;;;;;;5033771;28;20031;-87
2021/04/27 11:44:18;;;;;;;12.60;5.88;;;20.70;42.80;;;;;;5033917;28;20506;-85
2021/04/27 11:47:05;;;;;;;13.45;6.05;;;21.00;40.50;;;;;;5016595;28;20493;-85
2021/04/27 11:50:03;;;;;;;9.27;5.35;;;20.90;41.90;;;;;;5016465;28;20107;-85
2021/04/27 11:52:38;;;;;;;9.45;5.03;;;21.50;41.50;;;;;;4979636;28;20041;-85
2021/04/27 11:55:10;;;;;;;9.82;4.72;;;21.50;41.80;;;;;;5015945;28;20040;-85
2021/04/27 11:57:41;;;;;;;10.85;5.32;;;21.50;41.80;;;;;;5033605;28;20022;-85
2021/04/27 12:00:07;;;;;;;8.65;5.82;;;21.70;40.80;;;;;;5033550;28;20030;-85
2021/04/27 12:02:33;;;;;;;11.70;5.70;;;22.40;39.90;;;;;;5033405;28;20026;-85
2021/04/27 12:04:59;;;;;;;11.50;5.38;;;22.60;39.60;;;;;;5033381;28;20040;-85
2021/04/27 12:07:29;;;;;;;15.52;5.63;;;22.60;39.50;;;;;;5033339;28;20025;-87
2021/04/27 12:09:56;;;;;;;8.27;5.43;;;22.00;40.50;;;;;;5015627;28;20112;-85
2021/04/27 12:12:23;;;;;;;10.18;5.10;;;21.70;39.60;;;;;;5015558;28;20032;-85
2021/04/27 12:14:51;;;;;;;8.93;5.13;;;21.90;41.30;;;;;;5015490;28;20040;-85
2021/04/27 12:17:35;;;;;;;8.07;4.68;;;21.80;39.70;;;;;;5015515;28;20079;-85
2021/04/27 12:20:16;;;;;;;12.55;6.32;;;22.10;39.20;;;;;;5015538;28;20029;-86
2021/04/27 12:22:52;;;;;;;8.40;5.25;;;22.10;39.60;;;;;;5015459;28;20140;-85
2021/04/27 12:25:21;;;;;;;13.32;5.32;;;22.30;40.80;;;;;;5015720;28;20021;-85
2021/04/27 12:27:49;;;;;;;9.80;5.47;;;22.40;41.30;;;;;;5015418;28;20546;-86
2021/04/27 12:30:35;;;;;;;10.43;6.50;;;22.80;39.10;;;;;;5017719;28;20025;-85
2021/04/27 12:33:22;;;;;;;6.72;5.40;;;22.60;39.50;;;;;;5019435;28;20026;-85
2021/04/27 12:35:52;;;;;;;10.00;6.35;;;22.80;40.50;;;;;;5037202;28;20040;-85
2021/04/27 12:38:18;;;;;;;11.13;6.50;;;23.20;40.00;;;;;;5037066;28;20014;-85
2021/04/27 12:40:53;;;;;;;10.38;6.32;;;22.60;40.40;;;;;;5019313;28;20032;-85
2021/04/27 12:43:32;;;;;;;14.07;6.53;;;22.40;40.70;;;;;;5019500;28;20032;-85
2021/04/27 12:46:00;;;;;;;12.38;5.95;;;22.70;39.60;;;;;;5019153;28;20041;-86
2021/04/27 12:48:29;;;;;;;7.45;5.13;;;23.40;40.30;;;;;;5019164;28;20036;-86
2021/04/27 12:50:59;;;;;;;10.63;5.15;;;23.00;40.50;;;;;;5019127;28;20021;-86
2021/04/27 12:53:42;;;;;;;9.13;4.90;;;22.70;38.50;;;;;;5019032;28;20159;-85
2021/04/27 12:56:11;;;;;;;9.27;4.80;;;22.80;36.30;;;;;;5037134;28;20382;-86
2021/04/27 12:58:37;;;;;;;8.25;4.45;;;22.70;36.40;;;;;;5019030;28;20029;-86
2021/04/27 13:01:05;;;;;;;10.50;5.10;;;22.90;36.20;;;;;;5018998;28;20025;-86